Terminal Aerodrome Forecast
Issued by NWS Charleston, SC

Home | Current Version | Previous Version | Text Only | Print | Product List | Glossary On
Versions: 1 2 3 4 5 6 7 8 9 10 11 12 13 14 15
000
FTUS42 KCHS 272300
TAFSAV
TAF
KSAV 272340Z 2800/2824 24008KT P6SM SCT200
     FM281400 26012G18KT P6SM FEW040 SCT200
     FM282100 25010G17KT P6SM VCTS BKN050CB=

USA.gov is the U.S. government's official web portal to all federal, state and local government web resources and services.